createdAt,value
2023-03-26T00:00:20.571Z,10.13
2023-03-26T00:00:50.303Z,11.10
2023-03-26T00:01:24.855Z,7.56
2023-03-26T00:01:55.858Z,9.33
2023-03-26T00:02:18.717Z,7.56
2023-03-26T00:02:41.584Z,7.56
2023-03-26T00:03:16.432Z,6.11
2023-03-26T00:03:48.599Z,5.47
2023-03-26T00:04:20.716Z,1.44
2023-03-26T00:04:50.770Z,1.44
2023-03-26T00:05:23.868Z,5.79
2023-03-26T00:05:56.058Z,9.01
2023-03-26T00:06:18.652Z,2.89
2023-03-26T00:06:40.938Z,7.88
2023-03-26T00:07:16.124Z,9.33
2023-03-26T00:07:47.859Z,7.24
2023-03-26T00:08:21.380Z,2.57
2023-03-26T00:08:50.368Z,6.11
2023-03-26T00:09:24.178Z,2.89
2023-03-26T00:09:55.840Z,7.88
2023-03-26T00:10:18.767Z,5.79
2023-03-26T00:10:41.598Z,6.11
2023-03-26T00:11:16.370Z,6.43
2023-03-26T00:11:49.022Z,12.23
2023-03-26T00:12:20.522Z,14.32
2023-03-26T00:12:50.386Z,7.24
2023-03-26T00:13:24.256Z,4.02
2023-03-26T00:13:56.171Z,3.54
2023-03-26T00:14:18.859Z,15.12
2023-03-26T00:14:41.336Z,7.24
2023-03-26T00:15:16.532Z,7.88
2023-03-26T00:15:48.312Z,5.47
2023-03-26T00:16:21.818Z,8.69
2023-03-26T00:16:52.549Z,9.65
2023-03-26T00:17:24.377Z,10.46
2023-03-26T00:17:56.730Z,2.89
2023-03-26T00:18:19.291Z,7.56
2023-03-26T00:18:41.928Z,9.01
2023-03-26T00:19:16.020Z,6.11
2023-03-26T00:19:48.272Z,5.47
2023-03-26T00:20:20.255Z,5.47
2023-03-26T00:20:50.356Z,6.43
2023-03-26T00:21:24.745Z,2.09
2023-03-26T00:21:56.046Z,4.66
2023-03-26T00:22:18.799Z,1.44
2023-03-26T00:22:41.343Z,4.02
2023-03-26T00:23:17.198Z,4.66
2023-03-26T00:23:47.747Z,10.78
2023-03-26T00:24:22.444Z,2.57
2023-03-26T00:24:50.565Z,6.92
2023-03-26T00:25:26.304Z,6.11
2023-03-26T00:25:56.096Z,4.34
2023-03-26T00:26:18.925Z,6.11
2023-03-26T00:26:41.579Z,3.21
2023-03-26T00:27:16.971Z,8.20
2023-03-26T00:27:48.204Z,5.47
2023-03-26T00:28:19.850Z,2.09
2023-03-26T00:28:50.765Z,7.24
2023-03-26T00:29:23.736Z,4.02
2023-03-26T00:29:57.287Z,9.65
2023-03-26T00:30:20.122Z,10.46
2023-03-26T00:30:43.266Z,4.02
2023-03-26T00:31:15.942Z,4.98
2023-03-26T00:31:47.813Z,7.88
2023-03-26T00:32:20.269Z,11.10
2023-03-26T00:32:53.420Z,7.56
2023-03-26T00:33:24.669Z,5.79
2023-03-26T00:33:56.320Z,8.69
2023-03-26T00:34:18.902Z,6.43
2023-03-26T00:34:42.004Z,6.11
2023-03-26T00:35:16.248Z,11.10
2023-03-26T00:35:47.991Z,4.66
2023-03-26T00:36:20.626Z,8.69
2023-03-26T00:36:50.757Z,3.54
2023-03-26T00:37:24.109Z,3.54
2023-03-26T00:37:56.392Z,4.02
2023-03-26T00:38:18.949Z,2.89
2023-03-26T00:38:41.632Z,6.11
2023-03-26T00:39:16.031Z,4.34
2023-03-26T00:39:47.698Z,7.56
2023-03-26T00:40:20.871Z,4.66
2023-03-26T00:40:50.951Z,6.43
2023-03-26T00:41:24.664Z,6.11
2023-03-26T00:41:56.097Z,13.03
2023-03-26T00:42:18.937Z,11.58
2023-03-26T00:42:41.348Z,6.43
2023-03-26T00:43:16.434Z,8.69
2023-03-26T00:43:48.677Z,4.66
2023-03-26T00:44:20.307Z,9.01
2023-03-26T00:44:50.588Z,3.54
2023-03-26T00:45:24.314Z,.64
2023-03-26T00:45:56.705Z,8.69
2023-03-26T00:46:19.570Z,4.66
2023-03-26T00:46:41.784Z,7.88
2023-03-26T00:47:16.754Z,11.10
2023-03-26T00:47:48.376Z,4.02
2023-03-26T00:48:21.727Z,4.66
2023-03-26T00:48:50.468Z,5.47
2023-03-26T00:49:24.735Z,6.92
2023-03-26T00:49:56.177Z,5.47
2023-03-26T00:50:18.540Z,10.46
2023-03-26T00:50:40.837Z,8.69
2023-03-26T00:51:16.717Z,6.11
2023-03-26T00:52:03.881Z,7.56
2023-03-26T00:52:26.430Z,3.54
2023-03-26T00:52:48.676Z,1.12
2023-03-26T00:53:23.938Z,7.24
2023-03-26T00:53:55.866Z,2.89
2023-03-26T00:54:19.362Z,3.21
2023-03-26T00:54:41.764Z,4.66
2023-03-26T00:55:16.071Z,6.11
2023-03-26T00:55:47.946Z,1.12
2023-03-26T00:56:20.151Z,6.11
2023-03-26T00:56:50.153Z,6.92
2023-03-26T00:57:35.044Z,7.88
2023-03-26T00:57:55.737Z,7.88
2023-03-26T00:58:18.814Z,12.55
2023-03-26T00:58:41.203Z,7.88
2023-03-26T00:59:15.883Z,4.66
2023-03-26T00:59:47.769Z,9.33
2023-03-26T01:00:19.928Z,13.03
2023-03-26T01:00:50.209Z,10.46
2023-03-26T01:01:24.369Z,2.89
2023-03-26T01:01:55.880Z,4.02
2023-03-26T01:02:18.821Z,5.47
2023-03-26T01:02:41.182Z,7.88
2023-03-26T01:03:26.814Z,3.54
2023-03-26T01:04:04.808Z,4.02
2023-03-26T01:04:20.134Z,3.21
2023-03-26T01:04:50.489Z,4.34
2023-03-26T01:05:23.755Z,11.90
2023-03-26T01:05:56.196Z,4.02
2023-03-26T01:06:18.600Z,2.09
2023-03-26T01:06:41.025Z,6.11
2023-03-26T01:07:15.638Z,5.47
2023-03-26T01:07:47.786Z,2.89
2023-03-26T01:08:21.371Z,2.09
2023-03-26T01:08:50.102Z,2.09
2023-03-26T01:09:23.881Z,2.57
2023-03-26T01:09:55.911Z,5.47
2023-03-26T01:10:19.760Z,4.66
2023-03-26T01:10:42.160Z,7.24
2023-03-26T01:11:16.189Z,6.92
2023-03-26T01:11:48.054Z,10.46
2023-03-26T01:12:19.735Z,8.69
2023-03-26T01:12:50.073Z,2.89
2023-03-26T01:13:23.905Z,6.11
2023-03-26T01:13:55.697Z,4.66
2023-03-26T01:14:19.164Z,8.69
2023-03-26T01:14:41.734Z,9.65
2023-03-26T01:15:16.964Z,7.88
2023-03-26T01:15:47.752Z,8.20
2023-03-26T01:16:19.933Z,7.88
2023-03-26T01:16:50.203Z,4.98
2023-03-26T01:17:23.740Z,6.43
2023-03-26T01:17:55.942Z,8.69
2023-03-26T01:18:19.170Z,6.43
2023-03-26T01:18:41.614Z,1.44
2023-03-26T01:19:15.833Z,5.47
2023-03-26T01:19:48.053Z,6.43
2023-03-26T01:20:21.183Z,6.43
2023-03-26T01:20:52.002Z,4.02
2023-03-26T01:21:23.694Z,1.12
2023-03-26T01:21:55.823Z,4.66
2023-03-26T01:22:19.010Z,6.11
2023-03-26T01:22:41.048Z,5.47
2023-03-26T01:23:16.784Z,9.01
2023-03-26T01:23:47.927Z,4.66
2023-03-26T01:24:19.858Z,2.89
2023-03-26T01:24:50.227Z,6.43
2023-03-26T01:25:23.769Z,4.66
2023-03-26T01:25:56.376Z,2.89
2023-03-26T01:26:19.584Z,5.79
2023-03-26T01:26:42.093Z,3.54
2023-03-26T01:27:17.055Z,3.54
2023-03-26T01:27:47.814Z,3.54
2023-03-26T01:28:19.891Z,4.66
2023-03-26T01:28:50.051Z,1.44
2023-03-26T01:29:23.894Z,1.44
2023-03-26T01:29:55.960Z,4.66
2023-03-26T01:30:19.306Z,4.02
2023-03-26T01:30:41.383Z,4.02
2023-03-26T01:31:17.276Z,2.89
2023-03-26T01:31:47.818Z,7.24
2023-03-26T01:32:20.380Z,6.43
2023-03-26T01:32:51.845Z,2.89
2023-03-26T01:33:24.026Z,2.09
2023-03-26T01:33:55.812Z,3.54
2023-03-26T01:34:18.572Z,5.79
2023-03-26T01:34:41.028Z,6.11
2023-03-26T01:35:17.943Z,4.02
2023-03-26T01:35:47.785Z,2.09
2023-03-26T01:36:19.925Z,6.43
2023-03-26T01:36:50.305Z,1.44
2023-03-26T01:37:23.913Z,1.44
2023-03-26T01:37:56.262Z,1.77
2023-03-26T01:38:19.236Z,2.57
2023-03-26T01:38:41.390Z,2.09
2023-03-26T01:39:18.313Z,.32
2023-03-26T01:39:47.782Z,2.89
2023-03-26T01:40:20.006Z,3.54
2023-03-26T01:40:50.316Z,2.09
2023-03-26T01:41:23.894Z,1.12
2023-03-26T01:41:55.647Z,2.89
2023-03-26T01:42:19.618Z,1.12
2023-03-26T01:42:41.174Z,6.43
2023-03-26T01:43:16.047Z,2.09
2023-03-26T01:43:48.059Z,2.09
2023-03-26T01:44:20.190Z,7.56
2023-03-26T01:44:50.276Z,2.09
2023-03-26T01:45:23.872Z,2.09
2023-03-26T01:45:55.893Z,4.34
2023-03-26T01:46:19.871Z,1.12
2023-03-26T01:46:41.154Z,4.34
2023-03-26T01:47:16.037Z,2.57
2023-03-26T01:47:48.212Z,3.54
2023-03-26T01:48:19.996Z,1.44
2023-03-26T01:48:50.080Z,.32
2023-03-26T01:49:23.841Z,2.89
2023-03-26T01:49:55.870Z,1.44
2023-03-26T01:50:22.022Z,4.02
2023-03-26T01:50:59.851Z,4.02
2023-03-26T01:51:23.681Z,3.54
2023-03-26T01:51:46.069Z,3.54
2023-03-26T01:52:20.588Z,1.77
2023-03-26T01:52:50.158Z,1.44
2023-03-26T01:53:23.651Z,1.44
2023-03-26T01:53:55.692Z,2.89
2023-03-26T01:54:22.120Z,1.12
2023-03-26T01:54:40.858Z,1.12
2023-03-26T01:55:15.645Z,1.77
2023-03-26T01:55:47.700Z,.64
2023-03-26T01:56:21.768Z,2.57
2023-03-26T01:56:50.123Z,2.09
2023-03-26T01:57:23.731Z,3.21
2023-03-26T01:57:55.916Z,.64
2023-03-26T01:58:21.737Z,0
2023-03-26T01:58:41.517Z,1.44
2023-03-26T01:59:15.825Z,1.44
2023-03-26T01:59:47.726Z,5.47
2023-03-26T02:00:29.012Z,4.02
2023-03-26T02:00:50.208Z,2.89
2023-03-26T02:01:23.840Z,2.09
2023-03-26T02:01:55.963Z,2.57
2023-03-26T02:02:18.453Z,1.12
2023-03-26T02:02:41.167Z,0
2023-03-26T02:03:16.258Z,2.09
2023-03-26T02:03:48.053Z,4.02
2023-03-26T02:04:19.933Z,0
2023-03-26T02:04:50.204Z,0
2023-03-26T02:05:24.044Z,2.09
2023-03-26T02:05:55.946Z,.32
2023-03-26T02:06:18.730Z,3.54
2023-03-26T02:06:43.475Z,3.21
2023-03-26T02:07:15.750Z,1.12
2023-03-26T02:07:47.641Z,4.02
2023-03-26T02:08:22.268Z,2.09
2023-03-26T02:08:50.076Z,1.44
2023-03-26T02:09:24.012Z,1.77
2023-03-26T02:09:56.012Z,1.44
2023-03-26T02:10:18.837Z,2.57
2023-03-26T02:10:41.463Z,3.54
2023-03-26T02:11:16.624Z,3.54
2023-03-26T02:11:44.779Z,1.77
2023-03-26T02:12:20.927Z,.64
2023-03-26T02:12:50.179Z,1.12
2023-03-26T02:13:25.002Z,1.12
2023-03-26T02:13:55.832Z,0
2023-03-26T02:14:18.540Z,0
2023-03-26T02:14:41.042Z,0
2023-03-26T02:15:16.306Z,.64
2023-03-26T02:15:48.461Z,1.77
2023-03-26T02:16:26.322Z,3.54
2023-03-26T02:16:48.000Z,2.57
2023-03-26T02:17:25.512Z,1.77
2023-03-26T02:17:55.664Z,1.44
2023-03-26T02:18:25.350Z,1.12
2023-03-26T02:18:41.232Z,0
2023-03-26T02:19:16.164Z,0
2023-03-26T02:19:47.873Z,1.44
2023-03-26T02:20:19.966Z,0
2023-03-26T02:20:52.571Z,1.44
2023-03-26T02:21:26.392Z,1.12
2023-03-26T02:21:56.184Z,.32
2023-03-26T02:22:18.811Z,1.12
2023-03-26T02:23:16.465Z,0
2023-03-26T02:23:48.110Z,.32
2023-03-26T02:24:20.887Z,0
2023-03-26T02:24:50.390Z,.32
2023-03-26T02:25:23.803Z,1.44
2023-03-26T02:25:55.881Z,.64
2023-03-26T02:26:18.408Z,.32
2023-03-26T02:26:40.807Z,1.12
2023-03-26T02:27:16.361Z,2.89
2023-03-26T02:27:48.959Z,2.09
2023-03-26T02:28:23.763Z,4.02
2023-03-26T02:28:46.146Z,1.12
2023-03-26T02:29:24.039Z,2.09
2023-03-26T02:30:01.748Z,1.44
2023-03-26T02:30:23.751Z,3.54
2023-03-26T02:30:59.756Z,4.02
2023-03-26T02:31:22.384Z,2.09
2023-03-26T02:31:44.817Z,1.44
2023-03-26T02:32:19.855Z,4.66
2023-03-26T02:32:50.997Z,.32
2023-03-26T02:33:24.201Z,2.09
2023-03-26T02:33:55.886Z,2.09
2023-03-26T02:34:18.700Z,3.54
2023-03-26T02:34:47.599Z,5.47
2023-03-26T02:35:10.019Z,4.02
2023-03-26T02:35:47.916Z,3.21
2023-03-26T02:36:19.886Z,2.89
2023-03-26T02:36:50.372Z,4.02
2023-03-26T02:37:23.724Z,2.57
2023-03-26T02:37:55.794Z,2.89
2023-03-26T02:38:18.809Z,1.44
2023-03-26T02:38:41.214Z,2.89
2023-03-26T02:39:10.116Z,3.54
2023-03-26T02:39:50.817Z,1.12
2023-03-26T02:40:22.930Z,0
2023-03-26T02:40:50.437Z,2.09
2023-03-26T02:41:23.810Z,.32
2023-03-26T02:41:56.153Z,2.09
2023-03-26T02:42:19.049Z,2.09
2023-03-26T02:42:41.578Z,2.57
2023-03-26T02:43:15.943Z,1.77
2023-03-26T02:43:48.540Z,4.98
2023-03-26T02:44:21.319Z,.32
2023-03-26T02:44:55.985Z,3.21
2023-03-26T02:45:23.836Z,2.09
2023-03-26T02:45:56.370Z,1.77
2023-03-26T02:46:18.931Z,2.89
2023-03-26T02:46:41.857Z,2.89
2023-03-26T02:47:16.444Z,1.12
2023-03-26T02:47:48.171Z,1.44
2023-03-26T02:48:20.746Z,1.12
2023-03-26T02:48:50.802Z,1.77
2023-03-26T02:49:26.950Z,4.66
2023-03-26T02:49:49.483Z,1.44
2023-03-26T02:50:21.941Z,3.21
2023-03-26T02:51:00.539Z,1.44
2023-03-26T02:51:23.472Z,1.44
2023-03-26T02:51:52.287Z,1.77
2023-03-26T02:52:20.372Z,1.12
2023-03-26T02:52:51.289Z,1.44
2023-03-26T02:53:24.325Z,1.12
2023-03-26T02:53:56.269Z,1.77
2023-03-26T02:54:19.017Z,1.44
2023-03-26T02:54:41.303Z,3.54
2023-03-26T02:55:24.048Z,2.09
2023-03-26T02:55:47.136Z,2.09
2023-03-26T02:56:21.501Z,2.89
2023-03-26T02:56:50.218Z,2.89
2023-03-26T02:57:24.153Z,1.12
2023-03-26T02:57:56.969Z,2.57
2023-03-26T02:58:19.633Z,1.12
2023-03-26T02:58:43.414Z,4.98
2023-03-26T02:59:19.882Z,1.44
2023-03-26T02:59:42.251Z,4.02
2023-03-26T03:00:21.431Z,1.77
2023-03-26T03:00:50.129Z,3.21
2023-03-26T03:01:23.748Z,1.12
2023-03-26T03:01:55.759Z,4.02
2023-03-26T03:02:18.821Z,1.12
2023-03-26T03:02:41.531Z,1.12
2023-03-26T03:03:15.884Z,2.89
2023-03-26T03:03:47.881Z,1.12
2023-03-26T03:04:22.234Z,2.09
2023-03-26T03:04:50.234Z,1.12
2023-03-26T03:05:23.583Z,1.12
2023-03-26T03:05:55.970Z,4.66
2023-03-26T03:06:18.244Z,2.89
2023-03-26T03:06:40.704Z,4.02
2023-03-26T03:07:15.822Z,0
2023-03-26T03:07:47.724Z,2.09
2023-03-26T03:08:22.298Z,1.44
2023-03-26T03:08:46.357Z,1.77
2023-03-26T03:09:30.379Z,2.57
2023-03-26T03:09:52.960Z,1.12
2023-03-26T03:10:21.936Z,1.44
2023-03-26T03:10:59.889Z,.32
2023-03-26T03:11:22.627Z,0
2023-03-26T03:11:46.838Z,2.89
2023-03-26T03:12:20.062Z,1.12
2023-03-26T03:12:54.471Z,1.77
2023-03-26T03:13:24.254Z,.32
2023-03-26T03:13:56.226Z,1.12
2023-03-26T03:14:18.951Z,1.44
2023-03-26T03:14:41.335Z,1.12
2023-03-26T03:15:18.204Z,2.09
2023-03-26T03:15:47.742Z,2.89
2023-03-26T03:16:21.277Z,2.09
2023-03-26T03:16:52.214Z,2.09
2023-03-26T03:17:23.840Z,2.57
2023-03-26T03:17:55.815Z,.32
2023-03-26T03:18:18.384Z,.32
2023-03-26T03:18:40.908Z,.32
2023-03-26T03:19:16.835Z,1.12
2023-03-26T03:19:48.479Z,2.89
2023-03-26T03:20:25.228Z,1.44
2023-03-26T03:20:50.603Z,2.89
2023-03-26T03:21:23.980Z,2.09
2023-03-26T03:21:55.994Z,2.89
2023-03-26T03:22:18.649Z,3.54
2023-03-26T03:22:41.210Z,6.11
2023-03-26T03:23:15.907Z,4.34
2023-03-26T03:23:48.068Z,2.09
2023-03-26T03:24:20.325Z,2.89
2023-03-26T03:24:50.483Z,2.09
2023-03-26T03:25:23.996Z,1.77
2023-03-26T03:25:55.861Z,2.09
2023-03-26T03:26:18.509Z,1.44
2023-03-26T03:26:41.334Z,1.12
2023-03-26T03:27:16.252Z,.32
2023-03-26T03:27:48.512Z,2.09
2023-03-26T03:28:19.640Z,1.12
2023-03-26T03:28:50.272Z,.64
2023-03-26T03:29:23.849Z,.64
2023-03-26T03:29:57.083Z,1.12
2023-03-26T03:30:21.905Z,.64
2023-03-26T03:30:41.897Z,.32
2023-03-26T03:31:16.048Z,1.12
2023-03-26T03:31:47.703Z,2.89
2023-03-26T03:32:19.984Z,2.89
2023-03-26T03:32:50.304Z,2.57
2023-03-26T03:33:25.138Z,4.02
2023-03-26T03:33:56.009Z,3.21
2023-03-26T03:34:19.078Z,4.02
2023-03-26T03:34:42.389Z,4.02
2023-03-26T03:35:16.043Z,0
2023-03-26T03:35:48.068Z,2.09
2023-03-26T03:36:21.838Z,2.09
2023-03-26T03:36:50.558Z,2.89
2023-03-26T03:37:24.107Z,2.89
2023-03-26T03:37:57.190Z,4.66
2023-03-26T03:38:19.868Z,4.02
2023-03-26T03:38:42.781Z,2.09
2023-03-26T03:39:15.969Z,1.77
2023-03-26T03:39:47.725Z,.32
2023-03-26T03:40:19.832Z,0
2023-03-26T03:40:50.587Z,2.09
2023-03-26T03:41:25.226Z,6.43
2023-03-26T03:41:55.868Z,2.89
2023-03-26T03:42:18.845Z,4.66
2023-03-26T03:42:47.859Z,4.02
2023-03-26T03:43:19.854Z,4.02
2023-03-26T03:43:42.868Z,1.12
2023-03-26T03:44:22.499Z,1.44
2023-03-26T03:44:50.204Z,2.89
2023-03-26T03:45:23.839Z,1.44
2023-03-26T03:45:55.887Z,3.54
2023-03-26T03:46:18.717Z,1.12
2023-03-26T03:46:41.555Z,2.89
2023-03-26T03:47:15.859Z,2.57
2023-03-26T03:47:47.787Z,2.09
2023-03-26T03:48:20.045Z,2.89
2023-03-26T03:48:45.530Z,6.92
2023-03-26T03:49:23.989Z,6.11
2023-03-26T03:49:58.355Z,2.89
2023-03-26T03:50:21.067Z,4.02
2023-03-26T03:50:41.520Z,4.98
2023-03-26T03:51:16.940Z,4.66
2023-03-26T03:51:48.818Z,2.89
2023-03-26T03:52:20.241Z,7.88
2023-03-26T03:52:51.489Z,4.02
2023-03-26T03:53:25.027Z,.32
2023-03-26T03:53:55.649Z,2.89
2023-03-26T03:54:19.926Z,.64
2023-03-26T03:54:46.341Z,4.34
2023-03-26T03:55:15.689Z,2.09
2023-03-26T03:55:48.044Z,1.12
2023-03-26T03:56:20.320Z,.64
2023-03-26T03:56:50.261Z,2.57
2023-03-26T03:57:23.700Z,2.89
2023-03-26T03:57:55.860Z,3.54
2023-03-26T03:58:18.653Z,3.21
2023-03-26T03:58:42.475Z,2.89
2023-03-26T03:59:18.821Z,4.66
2023-03-26T03:59:48.558Z,1.12
2023-03-26T04:00:21.443Z,2.89
2023-03-26T04:00:51.248Z,1.44
2023-03-26T04:01:25.101Z,2.09
2023-03-26T04:01:59.170Z,1.44
2023-03-26T04:02:21.739Z,1.12
2023-03-26T04:03:01.397Z,.32
2023-03-26T04:03:34.144Z,2.57
2023-03-26T04:03:48.589Z,2.09
2023-03-26T04:04:23.651Z,2.89
2023-03-26T04:04:50.937Z,3.54
2023-03-26T04:05:23.831Z,3.54
2023-03-26T04:05:56.793Z,2.09
2023-03-26T04:06:19.301Z,1.44
2023-03-26T04:06:45.244Z,2.89
2023-03-26T04:07:16.209Z,5.47
2023-03-26T04:07:47.847Z,3.54
2023-03-26T04:08:21.548Z,2.09
2023-03-26T04:08:50.897Z,.32
2023-03-26T04:09:24.362Z,4.66
2023-03-26T04:10:01.796Z,2.09
2023-03-26T04:10:18.857Z,5.47
2023-03-26T04:10:40.994Z,0
2023-03-26T04:11:16.360Z,4.98
2023-03-26T04:11:48.491Z,2.89
2023-03-26T04:12:20.377Z,2.09
2023-03-26T04:12:52.150Z,2.09
2023-03-26T04:13:24.304Z,2.09
2023-03-26T04:13:56.366Z,.64
2023-03-26T04:14:18.915Z,3.21
2023-03-26T04:14:41.471Z,3.54
2023-03-26T04:15:17.236Z,3.21
2023-03-26T04:15:49.015Z,2.09
2023-03-26T04:16:21.678Z,4.66
2023-03-26T04:16:52.363Z,2.57
2023-03-26T04:17:24.377Z,2.57
2023-03-26T04:19:00.396Z,4.02
2023-03-26T04:19:16.523Z,4.02
2023-03-26T04:19:48.630Z,3.21
2023-03-26T04:20:20.988Z,3.54
2023-03-26T04:20:50.528Z,3.54
2023-03-26T04:21:24.019Z,5.47
2023-03-26T04:21:55.749Z,3.54
2023-03-26T04:22:18.762Z,1.77
2023-03-26T04:22:40.952Z,3.21
2023-03-26T04:23:16.277Z,3.54
2023-03-26T04:23:48.336Z,4.02
2023-03-26T04:24:20.761Z,2.09
2023-03-26T04:24:50.631Z,4.66
2023-03-26T04:25:24.039Z,1.44
2023-03-26T04:25:57.069Z,2.57
2023-03-26T04:26:19.291Z,2.09
2023-03-26T04:26:42.343Z,1.12
2023-03-26T04:27:17.139Z,2.09
2023-03-26T04:27:47.719Z,1.44
2023-03-26T04:28:19.878Z,4.02
2023-03-26T04:28:50.135Z,3.54
2023-03-26T04:29:23.736Z,.32
2023-03-26T04:29:56.979Z,4.02
2023-03-26T04:30:19.686Z,2.09
2023-03-26T04:30:42.372Z,1.12
2023-03-26T04:31:16.306Z,4.02
2023-03-26T04:31:47.875Z,4.02
2023-03-26T04:32:19.931Z,1.12
2023-03-26T04:32:50.696Z,1.44
2023-03-26T04:33:23.786Z,2.89
2023-03-26T04:33:56.882Z,1.44
2023-03-26T04:34:19.623Z,2.09
2023-03-26T04:34:43.154Z,3.54
2023-03-26T04:35:16.039Z,2.09
2023-03-26T04:35:47.758Z,1.44
2023-03-26T04:36:20.771Z,1.12
2023-03-26T04:36:50.901Z,2.09
2023-03-26T04:37:25.823Z,2.57
2023-03-26T04:37:55.755Z,2.89
2023-03-26T04:38:18.459Z,2.89
2023-03-26T04:38:41.391Z,3.54
2023-03-26T04:39:17.844Z,1.77
2023-03-26T04:39:48.965Z,1.12
2023-03-26T04:40:19.844Z,5.47
2023-03-26T04:40:50.727Z,4.02
2023-03-26T04:41:24.224Z,1.44
2023-03-26T04:41:56.655Z,1.44
2023-03-26T04:42:19.273Z,1.12
2023-03-26T04:42:41.836Z,4.02
2023-03-26T04:43:15.945Z,.32
2023-03-26T04:43:48.102Z,.64
2023-03-26T04:44:20.942Z,2.09
2023-03-26T04:44:51.643Z,1.12
2023-03-26T04:45:24.156Z,1.12
2023-03-26T04:45:55.957Z,2.89
2023-03-26T04:46:18.485Z,3.21
2023-03-26T04:46:41.439Z,.32
2023-03-26T04:47:18.142Z,4.34
2023-03-26T04:47:48.353Z,5.47
2023-03-26T04:48:20.381Z,4.34
2023-03-26T04:49:08.386Z,5.47
2023-03-26T04:49:31.455Z,2.09
2023-03-26T04:49:53.532Z,2.09
2023-03-26T04:50:16.296Z,1.12
2023-03-26T04:50:38.782Z,2.57
2023-03-26T04:51:16.455Z,4.66
2023-03-26T04:51:48.001Z,3.54
2023-03-26T04:52:19.741Z,3.54
2023-03-26T04:52:51.620Z,1.12
2023-03-26T04:53:23.885Z,2.89
2023-03-26T04:53:55.716Z,.32
2023-03-26T04:54:19.594Z,0
2023-03-26T04:54:41.663Z,.32
2023-03-26T04:55:16.057Z,3.54
2023-03-26T04:55:47.545Z,6.11
2023-03-26T04:56:19.673Z,4.66
2023-03-26T04:56:50.132Z,3.21
2023-03-26T04:57:23.577Z,1.44
2023-03-26T04:57:55.690Z,3.54
2023-03-26T04:58:18.506Z,2.09
2023-03-26T04:58:40.800Z,2.57
2023-03-26T04:59:15.753Z,2.09
2023-03-26T04:59:47.736Z,2.89
2023-03-26T05:00:19.863Z,1.77
2023-03-26T05:00:50.210Z,4.34
2023-03-26T05:01:23.713Z,1.44
2023-03-26T05:01:56.046Z,2.09
2023-03-26T05:02:18.414Z,2.89
2023-03-26T05:02:40.788Z,2.09
2023-03-26T05:03:15.753Z,.64
2023-03-26T05:03:47.978Z,1.77
2023-03-26T05:04:19.655Z,.64
2023-03-26T05:04:50.281Z,2.09
2023-03-26T05:05:23.842Z,3.21
2023-03-26T05:05:56.080Z,.32
2023-03-26T05:06:18.714Z,1.44
2023-03-26T05:06:40.914Z,1.44
2023-03-26T05:07:15.593Z,1.44
2023-03-26T05:07:47.764Z,1.44
2023-03-26T05:08:21.007Z,.64
2023-03-26T05:08:50.231Z,0
2023-03-26T05:09:23.568Z,0
2023-03-26T05:09:55.713Z,1.12
2023-03-26T05:10:18.380Z,4.66
2023-03-26T05:10:40.933Z,1.12
2023-03-26T05:11:15.737Z,2.09
2023-03-26T05:11:47.913Z,2.09
2023-03-26T05:12:19.828Z,2.89
2023-03-26T05:12:51.404Z,2.89
2023-03-26T05:13:23.933Z,1.12
2023-03-26T05:13:55.590Z,1.77
2023-03-26T05:14:19.665Z,.64
2023-03-26T05:14:41.962Z,.32
2023-03-26T05:15:15.762Z,1.44
2023-03-26T05:15:47.882Z,0
2023-03-26T05:16:19.975Z,2.09
2023-03-26T05:16:50.409Z,0
2023-03-26T05:17:23.810Z,0
2023-03-26T05:17:55.942Z,1.12
2023-03-26T05:18:19.112Z,1.12
2023-03-26T05:18:41.765Z,1.44
2023-03-26T05:19:15.620Z,2.57
2023-03-26T05:19:48.037Z,1.44
2023-03-26T05:20:25.121Z,1.44
2023-03-26T05:20:50.257Z,.32
2023-03-26T05:21:23.678Z,0
2023-03-26T05:21:55.959Z,2.09
2023-03-26T05:22:18.492Z,2.09
2023-03-26T05:22:41.128Z,2.57
2023-03-26T05:23:15.817Z,4.02
2023-03-26T05:23:47.761Z,2.57
2023-03-26T05:24:19.984Z,.64
2023-03-26T05:24:51.818Z,2.57
2023-03-26T05:25:23.594Z,.64
2023-03-26T05:25:55.790Z,1.77
2023-03-26T05:26:18.549Z,3.21
2023-03-26T05:26:40.976Z,1.44
2023-03-26T05:27:16.278Z,3.54
2023-03-26T05:27:47.871Z,1.77
2023-03-26T05:28:19.696Z,0
2023-03-26T05:28:50.340Z,2.57
2023-03-26T05:29:23.949Z,2.09
2023-03-26T05:29:55.657Z,2.09
2023-03-26T05:30:19.502Z,1.12
2023-03-26T05:30:41.760Z,0
2023-03-26T05:31:15.878Z,2.89
2023-03-26T05:31:47.930Z,2.09
2023-03-26T05:32:20.136Z,1.44
2023-03-26T05:32:50.476Z,.32
2023-03-26T05:33:23.781Z,2.09
2023-03-26T05:33:55.822Z,2.89
2023-03-26T05:34:18.416Z,1.44
2023-03-26T05:34:40.956Z,3.54
2023-03-26T05:35:15.598Z,4.02
2023-03-26T05:35:47.997Z,.64
2023-03-26T05:36:19.717Z,.32
2023-03-26T05:36:50.458Z,.32
2023-03-26T05:37:23.927Z,1.12
2023-03-26T05:37:55.728Z,.32
2023-03-26T05:38:19.094Z,1.77
2023-03-26T05:38:41.529Z,.32
2023-03-26T05:39:15.666Z,1.44
2023-03-26T05:39:47.727Z,2.89
2023-03-26T05:40:19.619Z,1.44
2023-03-26T05:40:50.216Z,1.77
2023-03-26T05:41:23.824Z,3.21
2023-03-26T05:41:55.711Z,2.89
2023-03-26T05:42:19.157Z,2.09
2023-03-26T05:42:41.540Z,2.89
2023-03-26T05:43:21.339Z,.32
2023-03-26T05:43:47.977Z,0
2023-03-26T05:44:21.376Z,.32
2023-03-26T05:44:50.445Z,1.44
2023-03-26T05:45:23.807Z,.32
2023-03-26T05:45:55.771Z,.32
2023-03-26T05:46:19.021Z,1.44
2023-03-26T05:46:41.838Z,.32
2023-03-26T05:47:16.244Z,0
2023-03-26T05:47:48.257Z,2.89
2023-03-26T05:48:19.874Z,1.44
2023-03-26T05:48:51.667Z,0
2023-03-26T05:49:23.890Z,.64
2023-03-26T05:49:46.607Z,.32
2023-03-26T05:50:09.521Z,.32
2023-03-26T05:50:47.237Z,0
2023-03-26T05:51:09.883Z,0
2023-03-26T05:51:39.457Z,0
2023-03-26T05:52:02.527Z,1.12
2023-03-26T05:52:35.717Z,1.12
2023-03-26T05:53:07.971Z,0
2023-03-26T05:53:40.432Z,1.44
2023-03-26T05:54:11.728Z,1.77
2023-03-26T05:54:34.411Z,1.77
2023-03-26T05:54:56.933Z,1.12
2023-03-26T05:55:39.945Z,0
2023-03-26T05:56:02.279Z,0
2023-03-26T05:56:35.980Z,0
2023-03-26T05:57:07.957Z,0
2023-03-26T05:57:40.337Z,1.12
2023-03-26T05:58:12.131Z,1.12
2023-03-26T05:58:36.305Z,1.44
2023-03-26T05:58:57.111Z,.64
2023-03-26T05:59:31.931Z,2.09
2023-03-26T06:00:06.217Z,1.12
2023-03-26T06:00:36.127Z,0
2023-03-26T06:01:07.560Z,0
2023-03-26T06:01:39.796Z,.32
2023-03-26T06:02:11.885Z,0
2023-03-26T06:02:34.541Z,.32
2023-03-26T06:02:57.457Z,1.44
2023-03-26T06:03:32.707Z,1.44
2023-03-26T06:04:07.817Z,.64
2023-03-26T06:04:36.033Z,0
2023-03-26T06:05:09.139Z,0
2023-03-26T06:05:39.722Z,1.77
2023-03-26T06:06:14.152Z,1.77
2023-03-26T06:06:36.634Z,2.09
2023-03-26T06:06:59.072Z,1.77
2023-03-26T06:07:32.006Z,0
2023-03-26T06:08:04.159Z,1.12
2023-03-26T06:08:36.360Z,0
2023-03-26T06:09:07.765Z,0
2023-03-26T06:09:40.077Z,0
2023-03-26T06:10:11.675Z,.32
2023-03-26T06:10:34.540Z,0
2023-03-26T06:10:57.193Z,0
2023-03-26T06:11:31.912Z,0
2023-03-26T06:12:04.444Z,0
2023-03-26T06:12:35.860Z,0
2023-03-26T06:13:13.730Z,0
2023-03-26T06:13:39.661Z,0
2023-03-26T06:14:12.660Z,0
2023-03-26T06:14:35.440Z,0
2023-03-26T06:14:57.897Z,0
2023-03-26T06:15:32.168Z,0
2023-03-26T06:16:03.754Z,0
2023-03-26T06:16:43.816Z,0
2023-03-26T06:17:06.456Z,0
2023-03-26T06:17:39.992Z,0
2023-03-26T06:18:11.805Z,0
2023-03-26T06:18:34.466Z,0
2023-03-26T06:18:57.712Z,0
2023-03-26T06:19:35.193Z,0
2023-03-26T06:19:57.562Z,0
2023-03-26T06:20:36.411Z,0
2023-03-26T06:21:07.886Z,0
2023-03-26T06:21:39.632Z,0
2023-03-26T06:22:11.577Z,0
2023-03-26T06:22:34.777Z,0
2023-03-26T06:22:57.102Z,0
2023-03-26T06:23:31.842Z,.32
2023-03-26T06:24:04.006Z,0
2023-03-26T06:24:35.672Z,1.44
2023-03-26T06:25:07.567Z,1.12
2023-03-26T06:25:39.662Z,0
2023-03-26T06:26:11.660Z,0
2023-03-26T06:26:34.766Z,.32
2023-03-26T06:26:57.219Z,0
2023-03-26T06:27:31.778Z,0
2023-03-26T06:28:03.936Z,0
2023-03-26T06:28:35.549Z,.64
2023-03-26T06:29:07.582Z,.32
2023-03-26T06:29:39.804Z,0
2023-03-26T06:30:12.333Z,1.77
2023-03-26T06:30:34.934Z,1.44
2023-03-26T06:30:57.454Z,.64
2023-03-26T06:31:31.783Z,0
2023-03-26T06:32:18.448Z,0
2023-03-26T06:32:35.847Z,.32
2023-03-26T06:33:07.801Z,1.12
2023-03-26T06:33:39.563Z,2.57
2023-03-26T06:34:11.595Z,0
2023-03-26T06:34:34.405Z,0
2023-03-26T06:34:56.835Z,1.44
2023-03-26T06:35:31.833Z,1.12
2023-03-26T06:36:03.963Z,.32
2023-03-26T06:36:35.774Z,.32
2023-03-26T06:37:07.840Z,1.44
2023-03-26T06:37:39.638Z,2.09
2023-03-26T06:38:11.601Z,1.77
2023-03-26T06:38:34.353Z,.32
2023-03-26T06:38:56.688Z,.32
2023-03-26T06:39:32.021Z,0
2023-03-26T06:40:03.791Z,0
2023-03-26T06:40:35.561Z,1.44
2023-03-26T06:41:08.082Z,1.44
2023-03-26T06:41:34.381Z,1.44
2023-03-26T06:42:13.189Z,.32
2023-03-26T06:43:07.570Z,2.09
2023-03-26T06:43:16.177Z,0
2023-03-26T06:43:38.914Z,0
2023-03-26T06:44:02.305Z,1.12
2023-03-26T06:44:35.577Z,0
2023-03-26T06:45:07.883Z,0
2023-03-26T06:45:39.624Z,0
2023-03-26T06:46:14.250Z,0